sensor_id;sensor_type;location;lat;lon;timestamp;P1;durP1;ratioP1;P2;durP2;ratioP2
66095;SDS011;53861;53.422;14.530;2023-04-15T00:01:00;52.00;;;23.35;;
66095;SDS011;53861;53.422;14.530;2023-04-15T00:03:28;58.47;;;23.23;;
66095;SDS011;53861;53.422;14.530;2023-04-15T00:05:57;54.85;;;21.98;;
66095;SDS011;53861;53.422;14.530;2023-04-15T00:08:24;51.75;;;22.02;;
66095;SDS011;53861;53.422;14.530;2023-04-15T00:10:52;49.00;;;20.73;;
66095;SDS011;53861;53.422;14.530;2023-04-15T00:13:19;49.90;;;22.08;;
66095;SDS011;53861;53.422;14.530;2023-04-15T00:15:46;45.13;;;20.13;;
66095;SDS011;53861;53.422;14.530;2023-04-15T00:18:13;44.58;;;20.48;;
66095;SDS011;53861;53.422;14.530;2023-04-15T00:20:41;44.70;;;19.98;;
66095;SDS011;53861;53.422;14.530;2023-04-15T00:23:09;39.38;;;18.67;;
66095;SDS011;53861;53.422;14.530;2023-04-15T00:25:37;45.35;;;18.95;;
66095;SDS011;53861;53.422;14.530;2023-04-15T00:28:04;44.28;;;18.27;;
66095;SDS011;53861;53.422;14.530;2023-04-15T00:30:31;44.25;;;18.20;;
66095;SDS011;53861;53.422;14.530;2023-04-15T00:32:59;40.08;;;16.70;;
66095;SDS011;53861;53.422;14.530;2023-04-15T00:35:28;43.03;;;17.73;;
66095;SDS011;53861;53.422;14.530;2023-04-15T00:37:57;40.15;;;18.33;;
66095;SDS011;53861;53.422;14.530;2023-04-15T00:40:25;39.53;;;17.15;;
66095;SDS011;53861;53.422;14.530;2023-04-15T00:42:53;34.10;;;15.98;;
66095;SDS011;53861;53.422;14.530;2023-04-15T00:45:20;39.60;;;16.50;;
66095;SDS011;53861;53.422;14.530;2023-04-15T00:47:47;37.72;;;16.48;;
66095;SDS011;53861;53.422;14.530;2023-04-15T00:50:16;35.70;;;16.05;;
66095;SDS011;53861;53.422;14.530;2023-04-15T00:52:43;33.83;;;16.35;;
66095;SDS011;53861;53.422;14.530;2023-04-15T00:55:11;37.80;;;16.52;;
66095;SDS011;53861;53.422;14.530;2023-04-15T00:57:39;37.53;;;16.52;;
66095;SDS011;53861;53.422;14.530;2023-04-15T01:00:07;36.65;;;16.73;;
66095;SDS011;53861;53.422;14.530;2023-04-15T01:02:36;42.67;;;18.38;;
66095;SDS011;53861;53.422;14.530;2023-04-15T01:05:04;46.03;;;18.52;;
66095;SDS011;53861;53.422;14.530;2023-04-15T01:07:32;40.13;;;18.13;;
66095;SDS011;53861;53.422;14.530;2023-04-15T01:09:59;43.90;;;18.77;;
66095;SDS011;53861;53.422;14.530;2023-04-15T01:12:26;44.38;;;18.58;;
66095;SDS011;53861;53.422;14.530;2023-04-15T01:14:55;48.47;;;18.98;;
66095;SDS011;53861;53.422;14.530;2023-04-15T01:17:23;41.17;;;17.90;;
66095;SDS011;53861;53.422;14.530;2023-04-15T01:19:51;42.95;;;17.67;;
66095;SDS011;53861;53.422;14.530;2023-04-15T01:22:18;40.17;;;16.48;;
66095;SDS011;53861;53.422;14.530;2023-04-15T01:24:51;40.75;;;16.50;;
66095;SDS011;53861;53.422;14.530;2023-04-15T01:27:24;41.72;;;17.13;;
66095;SDS011;53861;53.422;14.530;2023-04-15T01:29:51;39.70;;;16.45;;
66095;SDS011;53861;53.422;14.530;2023-04-15T01:32:19;42.00;;;16.02;;
66095;SDS011;53861;53.422;14.530;2023-04-15T01:34:46;42.45;;;16.25;;
66095;SDS011;53861;53.422;14.530;2023-04-15T01:37:13;35.47;;;16.33;;
66095;SDS011;53861;53.422;14.530;2023-04-15T01:39:41;38.03;;;16.52;;
66095;SDS011;53861;53.422;14.530;2023-04-15T01:42:09;37.50;;;15.95;;
66095;SDS011;53861;53.422;14.530;2023-04-15T01:44:37;35.53;;;15.70;;
66095;SDS011;53861;53.422;14.530;2023-04-15T01:47:04;37.95;;;16.50;;
66095;SDS011;53861;53.422;14.530;2023-04-15T01:49:33;35.83;;;15.75;;
66095;SDS011;53861;53.422;14.530;2023-04-15T01:52:00;39.90;;;17.15;;
66095;SDS011;53861;53.422;14.530;2023-04-15T01:54:27;40.30;;;16.23;;
66095;SDS011;53861;53.422;14.530;2023-04-15T01:56:55;34.53;;;15.90;;
66095;SDS011;53861;53.422;14.530;2023-04-15T01:59:22;35.20;;;15.93;;
66095;SDS011;53861;53.422;14.530;2023-04-15T02:01:51;34.85;;;15.27;;
66095;SDS011;53861;53.422;14.530;2023-04-15T02:04:18;37.00;;;16.17;;
66095;SDS011;53861;53.422;14.530;2023-04-15T02:06:46;34.47;;;15.50;;
66095;SDS011;53861;53.422;14.530;2023-04-15T02:09:13;36.85;;;16.45;;
66095;SDS011;53861;53.422;14.530;2023-04-15T02:11:40;37.53;;;15.82;;
66095;SDS011;53861;53.422;14.530;2023-04-15T02:14:08;34.25;;;15.98;;
66095;SDS011;53861;53.422;14.530;2023-04-15T02:16:35;33.80;;;15.85;;
66095;SDS011;53861;53.422;14.530;2023-04-15T02:19:03;35.70;;;16.27;;
66095;SDS011;53861;53.422;14.530;2023-04-15T02:21:31;38.60;;;17.50;;
66095;SDS011;53861;53.422;14.530;2023-04-15T02:23:59;38.90;;;16.30;;
66095;SDS011;53861;53.422;14.530;2023-04-15T02:26:28;38.85;;;17.67;;
66095;SDS011;53861;53.422;14.530;2023-04-15T02:28:57;44.38;;;18.55;;
66095;SDS011;53861;53.422;14.530;2023-04-15T02:31:24;41.65;;;18.13;;
66095;SDS011;53861;53.422;14.530;2023-04-15T02:33:51;40.58;;;18.25;;
66095;SDS011;53861;53.422;14.530;2023-04-15T02:36:20;38.95;;;17.85;;
66095;SDS011;53861;53.422;14.530;2023-04-15T02:38:48;39.42;;;18.08;;
66095;SDS011;53861;53.422;14.530;2023-04-15T02:41:16;39.45;;;17.80;;
66095;SDS011;53861;53.422;14.530;2023-04-15T02:43:43;36.15;;;17.35;;
66095;SDS011;53861;53.422;14.530;2023-04-15T02:46:10;38.60;;;18.30;;
66095;SDS011;53861;53.422;14.530;2023-04-15T02:48:39;40.85;;;18.05;;
66095;SDS011;53861;53.422;14.530;2023-04-15T02:51:13;40.05;;;19.02;;
66095;SDS011;53861;53.422;14.530;2023-04-15T02:53:42;37.97;;;17.17;;
66095;SDS011;53861;53.422;14.530;2023-04-15T02:56:10;41.15;;;17.73;;
66095;SDS011;53861;53.422;14.530;2023-04-15T02:58:37;42.88;;;17.65;;
66095;SDS011;53861;53.422;14.530;2023-04-15T03:01:05;40.08;;;18.33;;
66095;SDS011;53861;53.422;14.530;2023-04-15T03:03:33;45.70;;;18.35;;
66095;SDS011;53861;53.422;14.530;2023-04-15T03:06:00;36.58;;;17.42;;
66095;SDS011;53861;53.422;14.530;2023-04-15T03:08:28;37.70;;;17.63;;
66095;SDS011;53861;53.422;14.530;2023-04-15T03:10:58;41.33;;;17.45;;
66095;SDS011;53861;53.422;14.530;2023-04-15T03:13:27;36.75;;;16.60;;
66095;SDS011;53861;53.422;14.530;2023-04-15T03:15:54;34.03;;;16.63;;
66095;SDS011;53861;53.422;14.530;2023-04-15T03:18:21;41.78;;;17.45;;
66095;SDS011;53861;53.422;14.530;2023-04-15T03:20:49;33.08;;;15.95;;
66095;SDS011;53861;53.422;14.530;2023-04-15T03:23:16;37.88;;;16.48;;
66095;SDS011;53861;53.422;14.530;2023-04-15T03:25:43;41.90;;;17.25;;
66095;SDS011;53861;53.422;14.530;2023-04-15T03:28:12;37.85;;;16.90;;
66095;SDS011;53861;53.422;14.530;2023-04-15T03:30:40;34.45;;;16.23;;
66095;SDS011;53861;53.422;14.530;2023-04-15T03:33:07;28.05;;;14.45;;
66095;SDS011;53861;53.422;14.530;2023-04-15T03:35:35;31.25;;;15.48;;
66095;SDS011;53861;53.422;14.530;2023-04-15T03:38:02;35.28;;;16.77;;
66095;SDS011;53861;53.422;14.530;2023-04-15T03:40:30;33.60;;;15.50;;
66095;SDS011;53861;53.422;14.530;2023-04-15T03:42:57;33.58;;;15.45;;
66095;SDS011;53861;53.422;14.530;2023-04-15T03:45:25;31.80;;;14.88;;
66095;SDS011;53861;53.422;14.530;2023-04-15T03:47:53;35.67;;;15.73;;
66095;SDS011;53861;53.422;14.530;2023-04-15T03:50:20;31.40;;;14.93;;
66095;SDS011;53861;53.422;14.530;2023-04-15T03:52:47;29.63;;;14.73;;
66095;SDS011;53861;53.422;14.530;2023-04-15T03:55:15;33.05;;;15.25;;
66095;SDS011;53861;53.422;14.530;2023-04-15T03:57:42;31.38;;;15.23;;
66095;SDS011;53861;53.422;14.530;2023-04-15T04:00:09;36.72;;;15.82;;
66095;SDS011;53861;53.422;14.530;2023-04-15T04:02:38;33.08;;;15.00;;
66095;SDS011;53861;53.422;14.530;2023-04-15T04:05:06;30.52;;;14.43;;
66095;SDS011;53861;53.422;14.530;2023-04-15T04:07:33;40.45;;;15.50;;
66095;SDS011;53861;53.422;14.530;2023-04-15T04:10:01;36.15;;;17.13;;
66095;SDS011;53861;53.422;14.530;2023-04-15T04:12:29;35.35;;;16.42;;
66095;SDS011;53861;53.422;14.530;2023-04-15T04:14:56;38.88;;;17.00;;
66095;SDS011;53861;53.422;14.530;2023-04-15T04:17:24;37.47;;;16.95;;
66095;SDS011;53861;53.422;14.530;2023-04-15T04:19:52;39.45;;;18.17;;
66095;SDS011;53861;53.422;14.530;2023-04-15T04:22:21;50.03;;;17.05;;
66095;SDS011;53861;53.422;14.530;2023-04-15T04:24:49;36.72;;;16.58;;
66095;SDS011;53861;53.422;14.530;2023-04-15T04:27:16;44.42;;;17.33;;
66095;SDS011;53861;53.422;14.530;2023-04-15T04:29:43;37.42;;;18.13;;
66095;SDS011;53861;53.422;14.530;2023-04-15T04:32:12;39.13;;;16.92;;
66095;SDS011;53861;53.422;14.530;2023-04-15T04:34:39;35.40;;;16.80;;
66095;SDS011;53861;53.422;14.530;2023-04-15T04:37:08;33.67;;;16.25;;
66095;SDS011;53861;53.422;14.530;2023-04-15T04:39:35;32.60;;;15.85;;
66095;SDS011;53861;53.422;14.530;2023-04-15T04:42:03;31.95;;;15.75;;
66095;SDS011;53861;53.422;14.530;2023-04-15T04:44:30;33.15;;;16.02;;
66095;SDS011;53861;53.422;14.530;2023-04-15T04:46:57;37.80;;;15.88;;
66095;SDS011;53861;53.422;14.530;2023-04-15T04:49:25;30.77;;;15.40;;
66095;SDS011;53861;53.422;14.530;2023-04-15T04:51:52;31.88;;;15.23;;
66095;SDS011;53861;53.422;14.530;2023-04-15T04:54:20;38.03;;;15.98;;
66095;SDS011;53861;53.422;14.530;2023-04-15T04:56:48;31.42;;;15.27;;
66095;SDS011;53861;53.422;14.530;2023-04-15T04:59:16;28.48;;;15.27;;
66095;SDS011;53861;53.422;14.530;2023-04-15T05:01:43;29.50;;;15.32;;
66095;SDS011;53861;53.422;14.530;2023-04-15T05:04:10;31.92;;;15.00;;
66095;SDS011;53861;53.422;14.530;2023-04-15T05:06:37;32.08;;;16.02;;
66095;SDS011;53861;53.422;14.530;2023-04-15T05:09:05;34.53;;;15.93;;
66095;SDS011;53861;53.422;14.530;2023-04-15T05:11:34;32.15;;;16.25;;
66095;SDS011;53861;53.422;14.530;2023-04-15T05:14:01;34.17;;;15.98;;
66095;SDS011;53861;53.422;14.530;2023-04-15T05:16:28;35.33;;;15.07;;
66095;SDS011;53861;53.422;14.530;2023-04-15T05:18:56;37.33;;;16.85;;
66095;SDS011;53861;53.422;14.530;2023-04-15T05:21:23;35.28;;;15.73;;
66095;SDS011;53861;53.422;14.530;2023-04-15T05:23:50;34.40;;;15.85;;
66095;SDS011;53861;53.422;14.530;2023-04-15T05:26:18;41.13;;;16.02;;
66095;SDS011;53861;53.422;14.530;2023-04-15T05:28:47;37.75;;;16.40;;
66095;SDS011;53861;53.422;14.530;2023-04-15T05:31:14;37.25;;;16.35;;
66095;SDS011;53861;53.422;14.530;2023-04-15T05:33:42;50.92;;;22.45;;
66095;SDS011;53861;53.422;14.530;2023-04-15T05:36:09;57.10;;;23.27;;
66095;SDS011;53861;53.422;14.530;2023-04-15T05:38:37;58.55;;;25.38;;
66095;SDS011;53861;53.422;14.530;2023-04-15T05:41:04;53.88;;;24.67;;
66095;SDS011;53861;53.422;14.530;2023-04-15T05:43:31;57.53;;;24.92;;
66095;SDS011;53861;53.422;14.530;2023-04-15T05:46:00;62.92;;;24.25;;
66095;SDS011;53861;53.422;14.530;2023-04-15T05:48:27;50.20;;;21.33;;
66095;SDS011;53861;53.422;14.530;2023-04-15T05:50:55;48.47;;;21.02;;
66095;SDS011;53861;53.422;14.530;2023-04-15T05:53:22;46.00;;;20.30;;
66095;SDS011;53861;53.422;14.530;2023-04-15T05:55:49;48.50;;;19.70;;
66095;SDS011;53861;53.422;14.530;2023-04-15T05:58:17;47.90;;;20.20;;
66095;SDS011;53861;53.422;14.530;2023-04-15T06:00:44;37.28;;;17.42;;
66095;SDS011;53861;53.422;14.530;2023-04-15T06:03:13;42.15;;;17.63;;
66095;SDS011;53861;53.422;14.530;2023-04-15T06:05:41;42.95;;;18.65;;
66095;SDS011;53861;53.422;14.530;2023-04-15T06:08:09;36.83;;;18.20;;
66095;SDS011;53861;53.422;14.530;2023-04-15T06:10:37;32.78;;;17.05;;
66095;SDS011;53861;53.422;14.530;2023-04-15T06:13:04;37.80;;;19.42;;
66095;SDS011;53861;53.422;14.530;2023-04-15T06:15:38;41.58;;;19.77;;
66095;SDS011;53861;53.422;14.530;2023-04-15T06:18:06;38.90;;;18.00;;
66095;SDS011;53861;53.422;14.530;2023-04-15T06:20:34;40.38;;;20.27;;
66095;SDS011;53861;53.422;14.530;2023-04-15T06:23:02;39.10;;;18.17;;
66095;SDS011;53861;53.422;14.530;2023-04-15T06:25:29;39.70;;;18.80;;
66095;SDS011;53861;53.422;14.530;2023-04-15T06:27:56;41.88;;;19.73;;
66095;SDS011;53861;53.422;14.530;2023-04-15T06:30:24;35.13;;;18.05;;
66095;SDS011;53861;53.422;14.530;2023-04-15T06:32:51;45.38;;;19.60;;
66095;SDS011;53861;53.422;14.530;2023-04-15T06:35:18;37.92;;;19.73;;
66095;SDS011;53861;53.422;14.530;2023-04-15T06:37:47;37.78;;;18.98;;
66095;SDS011;53861;53.422;14.530;2023-04-15T06:40:14;38.75;;;20.23;;
66095;SDS011;53861;53.422;14.530;2023-04-15T06:42:42;42.33;;;19.38;;
66095;SDS011;53861;53.422;14.530;2023-04-15T06:45:09;44.25;;;20.77;;
66095;SDS011;53861;53.422;14.530;2023-04-15T06:47:37;48.80;;;21.42;;
66095;SDS011;53861;53.422;14.530;2023-04-15T06:50:05;41.72;;;21.10;;
66095;SDS011;53861;53.422;14.530;2023-04-15T06:52:34;50.88;;;19.95;;
66095;SDS011;53861;53.422;14.530;2023-04-15T06:55:02;38.72;;;20.50;;
66095;SDS011;53861;53.422;14.530;2023-04-15T06:57:30;37.55;;;18.23;;
66095;SDS011;53861;53.422;14.530;2023-04-15T06:59:57;42.92;;;18.35;;
66095;SDS011;53861;53.422;14.530;2023-04-15T07:02:25;38.28;;;18.08;;
66095;SDS011;53861;53.422;14.530;2023-04-15T07:04:52;40.85;;;19.75;;
66095;SDS011;53861;53.422;14.530;2023-04-15T07:07:20;36.53;;;17.63;;
66095;SDS011;53861;53.422;14.530;2023-04-15T07:09:47;34.63;;;17.33;;
66095;SDS011;53861;53.422;14.530;2023-04-15T07:12:16;38.70;;;17.35;;
66095;SDS011;53861;53.422;14.530;2023-04-15T07:14:43;36.15;;;18.60;;
66095;SDS011;53861;53.422;14.530;2023-04-15T07:17:11;33.70;;;17.13;;
66095;SDS011;53861;53.422;14.530;2023-04-15T07:19:38;34.92;;;16.75;;
66095;SDS011;53861;53.422;14.530;2023-04-15T07:22:05;36.83;;;17.50;;
66095;SDS011;53861;53.422;14.530;2023-04-15T07:24:32;39.08;;;16.85;;
66095;SDS011;53861;53.422;14.530;2023-04-15T07:27:00;32.45;;;15.60;;
66095;SDS011;53861;53.422;14.530;2023-04-15T07:29:30;35.78;;;16.33;;
66095;SDS011;53861;53.422;14.530;2023-04-15T07:31:57;31.90;;;15.80;;
66095;SDS011;53861;53.422;14.530;2023-04-15T07:34:24;33.63;;;15.77;;
66095;SDS011;53861;53.422;14.530;2023-04-15T07:36:52;35.75;;;15.55;;
66095;SDS011;53861;53.422;14.530;2023-04-15T07:39:19;31.80;;;15.70;;
66095;SDS011;53861;53.422;14.530;2023-04-15T07:41:47;35.22;;;15.20;;
66095;SDS011;53861;53.422;14.530;2023-04-15T07:44:14;32.85;;;15.85;;
66095;SDS011;53861;53.422;14.530;2023-04-15T07:46:43;34.70;;;15.90;;
66095;SDS011;53861;53.422;14.530;2023-04-15T07:49:10;32.47;;;16.40;;
66095;SDS011;53861;53.422;14.530;2023-04-15T07:51:38;36.85;;;17.45;;
66095;SDS011;53861;53.422;14.530;2023-04-15T07:54:05;34.20;;;16.50;;
66095;SDS011;53861;53.422;14.530;2023-04-15T07:56:32;36.90;;;17.02;;
66095;SDS011;53861;53.422;14.530;2023-04-15T07:58:59;34.00;;;16.38;;
66095;SDS011;53861;53.422;14.530;2023-04-15T08:01:29;30.17;;;15.02;;
66095;SDS011;53861;53.422;14.530;2023-04-15T08:03:59;35.15;;;15.48;;
66095;SDS011;53861;53.422;14.530;2023-04-15T08:06:26;31.80;;;15.77;;
66095;SDS011;53861;53.422;14.530;2023-04-15T08:08:53;35.30;;;16.33;;
66095;SDS011;53861;53.422;14.530;2023-04-15T08:11:20;32.13;;;16.58;;
66095;SDS011;53861;53.422;14.530;2023-04-15T08:13:49;33.78;;;16.63;;
66095;SDS011;53861;53.422;14.530;2023-04-15T08:16:17;47.83;;;16.63;;
66095;SDS011;53861;53.422;14.530;2023-04-15T08:18:45;31.02;;;15.90;;
66095;SDS011;53861;53.422;14.530;2023-04-15T08:21:13;36.38;;;17.17;;
66095;SDS011;53861;53.422;14.530;2023-04-15T08:23:41;33.35;;;16.10;;
66095;SDS011;53861;53.422;14.530;2023-04-15T08:26:09;34.15;;;16.17;;
66095;SDS011;53861;53.422;14.530;2023-04-15T08:28:37;31.08;;;16.20;;
66095;SDS011;53861;53.422;14.530;2023-04-15T08:31:05;31.83;;;15.43;;
66095;SDS011;53861;53.422;14.530;2023-04-15T08:33:33;33.35;;;16.10;;
66095;SDS011;53861;53.422;14.530;2023-04-15T08:36:01;33.40;;;15.63;;
66095;SDS011;53861;53.422;14.530;2023-04-15T08:38:32;27.48;;;15.10;;
66095;SDS011;53861;53.422;14.530;2023-04-15T08:41:01;30.17;;;16.25;;
66095;SDS011;53861;53.422;14.530;2023-04-15T08:46:11;39.38;;;17.17;;
66095;SDS011;53861;53.422;14.530;2023-04-15T08:48:39;35.55;;;17.17;;
66095;SDS011;53861;53.422;14.530;2023-04-15T08:51:08;44.72;;;18.23;;
66095;SDS011;53861;53.422;14.530;2023-04-15T08:53:42;37.70;;;17.40;;
66095;SDS011;53861;53.422;14.530;2023-04-15T08:56:11;34.38;;;16.15;;
66095;SDS011;53861;53.422;14.530;2023-04-15T08:58:41;39.83;;;17.02;;
66095;SDS011;53861;53.422;14.530;2023-04-15T09:01:10;34.58;;;16.40;;
66095;SDS011;53861;53.422;14.530;2023-04-15T09:03:41;35.08;;;16.33;;
66095;SDS011;53861;53.422;14.530;2023-04-15T09:06:09;32.85;;;15.98;;
66095;SDS011;53861;53.422;14.530;2023-04-15T09:08:38;35.15;;;16.13;;
66095;SDS011;53861;53.422;14.530;2023-04-15T09:11:07;29.52;;;16.05;;
66095;SDS011;53861;53.422;14.530;2023-04-15T09:13:35;35.90;;;17.48;;
66095;SDS011;53861;53.422;14.530;2023-04-15T09:16:03;31.20;;;16.33;;
66095;SDS011;53861;53.422;14.530;2023-04-15T09:18:33;33.00;;;16.38;;
66095;SDS011;53861;53.422;14.530;2023-04-15T09:21:05;31.90;;;15.50;;
66095;SDS011;53861;53.422;14.530;2023-04-15T09:23:38;33.00;;;15.83;;
66095;SDS011;53861;53.422;14.530;2023-04-15T09:26:08;27.23;;;15.40;;
66095;SDS011;53861;53.422;14.530;2023-04-15T09:28:41;30.95;;;15.88;;
66095;SDS011;53861;53.422;14.530;2023-04-15T09:31:08;30.35;;;15.13;;
66095;SDS011;53861;53.422;14.530;2023-04-15T09:33:53;30.58;;;15.25;;
66095;SDS011;53861;53.422;14.530;2023-04-15T09:36:23;24.52;;;13.02;;
66095;SDS011;53861;53.422;14.530;2023-04-15T09:38:54;24.42;;;14.13;;
66095;SDS011;53861;53.422;14.530;2023-04-15T09:41:24;36.28;;;14.48;;
66095;SDS011;53861;53.422;14.530;2023-04-15T09:43:54;31.80;;;15.52;;
66095;SDS011;53861;53.422;14.530;2023-04-15T09:49:13;32.47;;;14.93;;
66095;SDS011;53861;53.422;14.530;2023-04-15T09:51:43;31.60;;;14.13;;
66095;SDS011;53861;53.422;14.530;2023-04-15T09:54:16;28.73;;;14.32;;
66095;SDS011;53861;53.422;14.530;2023-04-15T09:56:47;24.95;;;14.07;;
66095;SDS011;53861;53.422;14.530;2023-04-15T09:59:15;30.02;;;14.13;;
66095;SDS011;53861;53.422;14.530;2023-04-15T10:01:48;27.45;;;13.73;;
66095;SDS011;53861;53.422;14.530;2023-04-15T10:04:18;28.40;;;13.80;;
66095;SDS011;53861;53.422;14.530;2023-04-15T10:06:47;25.70;;;13.90;;
66095;SDS011;53861;53.422;14.530;2023-04-15T10:09:15;25.92;;;14.57;;
66095;SDS011;53861;53.422;14.530;2023-04-15T10:11:43;32.22;;;13.52;;
66095;SDS011;53861;53.422;14.530;2023-04-15T10:14:14;25.70;;;13.32;;
66095;SDS011;53861;53.422;14.530;2023-04-15T10:16:48;37.08;;;13.00;;
66095;SDS011;53861;53.422;14.530;2023-04-15T10:19:19;22.38;;;12.43;;
66095;SDS011;53861;53.422;14.530;2023-04-15T10:21:53;23.40;;;13.27;;
66095;SDS011;53861;53.422;14.530;2023-04-15T10:24:21;28.00;;;13.48;;
66095;SDS011;53861;53.422;14.530;2023-04-15T10:26:51;24.23;;;13.00;;
66095;SDS011;53861;53.422;14.530;2023-04-15T10:29:21;27.60;;;12.70;;
66095;SDS011;53861;53.422;14.530;2023-04-15T10:31:50;26.48;;;12.95;;
66095;SDS011;53861;53.422;14.530;2023-04-15T10:34:19;28.35;;;13.20;;
66095;SDS011;53861;53.422;14.530;2023-04-15T10:36:50;25.27;;;12.25;;
66095;SDS011;53861;53.422;14.530;2023-04-15T10:39:40;24.52;;;11.93;;
66095;SDS011;53861;53.422;14.530;2023-04-15T10:42:11;29.40;;;12.77;;
66095;SDS011;53861;53.422;14.530;2023-04-15T10:44:40;27.63;;;13.27;;
66095;SDS011;53861;53.422;14.530;2023-04-15T10:47:10;55.72;;;13.23;;
66095;SDS011;53861;53.422;14.530;2023-04-15T10:49:47;35.17;;;14.15;;
66095;SDS011;53861;53.422;14.530;2023-04-15T10:52:16;25.73;;;13.32;;
66095;SDS011;53861;53.422;14.530;2023-04-15T10:54:47;30.55;;;13.70;;
66095;SDS011;53861;53.422;14.530;2023-04-15T10:57:21;29.35;;;14.65;;
66095;SDS011;53861;53.422;14.530;2023-04-15T10:59:59;26.00;;;13.95;;
66095;SDS011;53861;53.422;14.530;2023-04-15T11:02:37;24.88;;;12.40;;
66095;SDS011;53861;53.422;14.530;2023-04-15T11:05:05;24.48;;;12.13;;
66095;SDS011;53861;53.422;14.530;2023-04-15T11:07:34;26.05;;;12.93;;
66095;SDS011;53861;53.422;14.530;2023-04-15T11:10:05;27.98;;;13.10;;
66095;SDS011;53861;53.422;14.530;2023-04-15T11:13:25;27.27;;;13.85;;
66095;SDS011;53861;53.422;14.530;2023-04-15T11:16:00;27.70;;;12.43;;
66095;SDS011;53861;53.422;14.530;2023-04-15T11:18:29;24.23;;;13.07;;
66095;SDS011;53861;53.422;14.530;2023-04-15T11:20:58;29.95;;;13.07;;
66095;SDS011;53861;53.422;14.530;2023-04-15T11:23:27;27.35;;;13.18;;
66095;SDS011;53861;53.422;14.530;2023-04-15T11:26:00;24.77;;;12.07;;
66095;SDS011;53861;53.422;14.530;2023-04-15T11:28:30;22.88;;;12.90;;
66095;SDS011;53861;53.422;14.530;2023-04-15T11:31:04;26.65;;;12.85;;
66095;SDS011;53861;53.422;14.530;2023-04-15T11:33:38;21.98;;;11.93;;
66095;SDS011;53861;53.422;14.530;2023-04-15T11:36:12;28.63;;;11.68;;
66095;SDS011;53861;53.422;14.530;2023-04-15T11:38:43;23.42;;;11.60;;
66095;SDS011;53861;53.422;14.530;2023-04-15T11:41:18;22.60;;;11.52;;
66095;SDS011;53861;53.422;14.530;2023-04-15T11:43:48;27.10;;;12.77;;
66095;SDS011;53861;53.422;14.530;2023-04-15T11:46:15;21.58;;;11.32;;
66095;SDS011;53861;53.422;14.530;2023-04-15T11:48:43;27.08;;;12.55;;
66095;SDS011;53861;53.422;14.530;2023-04-15T11:51:12;30.05;;;12.77;;
66095;SDS011;53861;53.422;14.530;2023-04-15T11:53:41;22.20;;;11.52;;
66095;SDS011;53861;53.422;14.530;2023-04-15T11:56:09;22.25;;;12.25;;
66095;SDS011;53861;53.422;14.530;2023-04-15T11:58:37;31.30;;;14.10;;
66095;SDS011;53861;53.422;14.530;2023-04-15T12:01:06;24.98;;;13.68;;
66095;SDS011;53861;53.422;14.530;2023-04-15T12:03:37;31.95;;;14.20;;
66095;SDS011;53861;53.422;14.530;2023-04-15T12:06:08;29.85;;;13.73;;
66095;SDS011;53861;53.422;14.530;2023-04-15T12:08:47;33.60;;;16.27;;
66095;SDS011;53861;53.422;14.530;2023-04-15T12:11:33;25.20;;;12.40;;
66095;SDS011;53861;53.422;14.530;2023-04-15T12:14:03;34.03;;;14.32;;
66095;SDS011;53861;53.422;14.530;2023-04-15T12:16:34;26.73;;;13.07;;
66095;SDS011;53861;53.422;14.530;2023-04-15T12:19:03;35.15;;;15.23;;
66095;SDS011;53861;53.422;14.530;2023-04-15T12:21:34;29.33;;;13.35;;
66095;SDS011;53861;53.422;14.530;2023-04-15T12:24:03;22.23;;;12.48;;
66095;SDS011;53861;53.422;14.530;2023-04-15T12:26:34;26.08;;;12.45;;
66095;SDS011;53861;53.422;14.530;2023-04-15T12:29:04;23.15;;;12.55;;
66095;SDS011;53861;53.422;14.530;2023-04-15T12:31:34;25.25;;;11.75;;
66095;SDS011;53861;53.422;14.530;2023-04-15T12:34:02;21.95;;;11.32;;
66095;SDS011;53861;53.422;14.530;2023-04-15T12:36:33;23.38;;;12.32;;
66095;SDS011;53861;53.422;14.530;2023-04-15T12:39:02;24.45;;;11.57;;
66095;SDS011;53861;53.422;14.530;2023-04-15T12:41:29;22.23;;;12.90;;
66095;SDS011;53861;53.422;14.530;2023-04-15T12:43:57;29.63;;;10.93;;
66095;SDS011;53861;53.422;14.530;2023-04-15T12:46:25;22.15;;;11.10;;
66095;SDS011;53861;53.422;14.530;2023-04-15T12:48:53;19.33;;;10.75;;
66095;SDS011;53861;53.422;14.530;2023-04-15T12:51:22;18.98;;;9.95;;
66095;SDS011;53861;53.422;14.530;2023-04-15T12:53:51;22.10;;;10.38;;
66095;SDS011;53861;53.422;14.530;2023-04-15T12:56:19;19.48;;;9.63;;
66095;SDS011;53861;53.422;14.530;2023-04-15T12:58:47;17.55;;;9.90;;
66095;SDS011;53861;53.422;14.530;2023-04-15T13:01:17;22.10;;;10.35;;
66095;SDS011;53861;53.422;14.530;2023-04-15T13:03:44;32.30;;;10.95;;
66095;SDS011;53861;53.422;14.530;2023-04-15T13:06:14;21.80;;;10.00;;
66095;SDS011;53861;53.422;14.530;2023-04-15T13:08:41;19.70;;;9.73;;
66095;SDS011;53861;53.422;14.530;2023-04-15T13:11:08;18.42;;;9.35;;
66095;SDS011;53861;53.422;14.530;2023-04-15T13:13:36;20.88;;;10.65;;
66095;SDS011;53861;53.422;14.530;2023-04-15T13:16:03;19.75;;;9.80;;
66095;SDS011;53861;53.422;14.530;2023-04-15T13:18:31;28.10;;;9.82;;
66095;SDS011;53861;53.422;14.530;2023-04-15T13:20:59;16.40;;;9.60;;
66095;SDS011;53861;53.422;14.530;2023-04-15T13:23:28;20.67;;;10.18;;
66095;SDS011;53861;53.422;14.530;2023-04-15T13:25:56;17.08;;;9.43;;
66095;SDS011;53861;53.422;14.530;2023-04-15T13:28:23;25.48;;;9.95;;
66095;SDS011;53861;53.422;14.530;2023-04-15T13:30:51;25.73;;;10.05;;
66095;SDS011;53861;53.422;14.530;2023-04-15T13:33:18;21.90;;;11.00;;
66095;SDS011;53861;53.422;14.530;2023-04-15T13:35:45;32.83;;;10.98;;
66095;SDS011;53861;53.422;14.530;2023-04-15T13:38:12;16.27;;;9.20;;
66095;SDS011;53861;53.422;14.530;2023-04-15T13:40:41;18.23;;;8.77;;
66095;SDS011;53861;53.422;14.530;2023-04-15T13:43:08;18.88;;;9.27;;
66095;SDS011;53861;53.422;14.530;2023-04-15T13:45:36;16.30;;;8.48;;
66095;SDS011;53861;53.422;14.530;2023-04-15T13:48:03;20.58;;;8.60;;
66095;SDS011;53861;53.422;14.530;2023-04-15T13:50:30;15.07;;;8.63;;
66095;SDS011;53861;53.422;14.530;2023-04-15T13:52:58;16.40;;;8.77;;
66095;SDS011;53861;53.422;14.530;2023-04-15T13:55:25;17.27;;;8.75;;
66095;SDS011;53861;53.422;14.530;2023-04-15T13:57:55;19.00;;;10.02;;
66095;SDS011;53861;53.422;14.530;2023-04-15T14:00:22;16.95;;;8.77;;
66095;SDS011;53861;53.422;14.530;2023-04-15T14:02:49;27.05;;;9.20;;
66095;SDS011;53861;53.422;14.530;2023-04-15T14:05:16;17.70;;;9.00;;
66095;SDS011;53861;53.422;14.530;2023-04-15T14:07:44;18.10;;;8.50;;
66095;SDS011;53861;53.422;14.530;2023-04-15T14:10:11;15.75;;;8.52;;
66095;SDS011;53861;53.422;14.530;2023-04-15T14:12:38;19.13;;;10.05;;
66095;SDS011;53861;53.422;14.530;2023-04-15T14:15:07;19.88;;;10.63;;
66095;SDS011;53861;53.422;14.530;2023-04-15T14:17:35;15.45;;;8.32;;
66095;SDS011;53861;53.422;14.530;2023-04-15T14:20:03;17.90;;;8.70;;
66095;SDS011;53861;53.422;14.530;2023-04-15T14:22:33;16.70;;;8.23;;
66095;SDS011;53861;53.422;14.530;2023-04-15T14:25:01;14.48;;;7.32;;